Terminal Aerodrome Forecast
Issued by NWS Louisville, KY

Home | Current Version | Previous Version | Text Only | Print | Product List | Glossary Off
Versions: 1 2 3 4 5 6 7 8 9 10 11 12 13 14 15

000
FTUS43 KLMK 190538
TAFSDF
TAF
KSDF 190538Z 1906/2012 23003KT P6SM FEW070 FEW250
     FM191400 22007KT P6SM VCSH SCT050 SCT150
     FM192000 28007KT P6SM FEW070 FEW200
     FM200100 VRB03KT P6SM FEW060 FEW250
      TEMPO 2009/2012 4SM BR=

USA.gov is the U.S. government's official web portal to all federal, state and local government web resources and services.